sensor_id;sensor_type;location;lat;lon;timestamp;P1;durP1;ratioP1;P2;durP2;ratioP2
32535;SDS011;18974;50.838;4.636;2023-03-11T00:00:41;11.88;;;2.83;;
32535;SDS011;18974;50.838;4.636;2023-03-11T00:03:10;11.25;;;2.67;;
32535;SDS011;18974;50.838;4.636;2023-03-11T00:05:39;5.80;;;2.17;;
32535;SDS011;18974;50.838;4.636;2023-03-11T00:08:07;8.13;;;2.30;;
32535;SDS011;18974;50.838;4.636;2023-03-11T00:10:37;13.98;;;2.58;;
32535;SDS011;18974;50.838;4.636;2023-03-11T00:13:05;12.00;;;4.25;;
32535;SDS011;18974;50.838;4.636;2023-03-11T00:15:32;8.27;;;2.80;;
32535;SDS011;18974;50.838;4.636;2023-03-11T00:17:58;12.77;;;2.80;;
32535;SDS011;18974;50.838;4.636;2023-03-11T00:20:28;10.93;;;2.30;;
32535;SDS011;18974;50.838;4.636;2023-03-11T00:22:55;15.55;;;3.15;;
32535;SDS011;18974;50.838;4.636;2023-03-11T00:25:22;11.80;;;2.92;;
32535;SDS011;18974;50.838;4.636;2023-03-11T00:27:49;7.95;;;2.55;;
32535;SDS011;18974;50.838;4.636;2023-03-11T00:30:16;11.43;;;2.63;;
32535;SDS011;18974;50.838;4.636;2023-03-11T00:32:42;9.77;;;1.90;;
32535;SDS011;18974;50.838;4.636;2023-03-11T00:35:12;9.02;;;2.75;;
32535;SDS011;18974;50.838;4.636;2023-03-11T00:37:40;10.75;;;3.28;;
32535;SDS011;18974;50.838;4.636;2023-03-11T00:40:10;8.63;;;2.28;;
32535;SDS011;18974;50.838;4.636;2023-03-11T00:42:40;9.00;;;2.08;;
32535;SDS011;18974;50.838;4.636;2023-03-11T00:45:06;10.52;;;2.70;;
32535;SDS011;18974;50.838;4.636;2023-03-11T00:47:32;9.05;;;2.20;;
32535;SDS011;18974;50.838;4.636;2023-03-11T00:49:58;11.95;;;2.50;;
32535;SDS011;18974;50.838;4.636;2023-03-11T00:52:24;18.92;;;2.53;;
32535;SDS011;18974;50.838;4.636;2023-03-11T00:54:50;14.05;;;2.30;;
32535;SDS011;18974;50.838;4.636;2023-03-11T00:57:15;14.13;;;2.67;;
32535;SDS011;18974;50.838;4.636;2023-03-11T00:59:41;11.63;;;2.42;;
32535;SDS011;18974;50.838;4.636;2023-03-11T01:02:07;10.40;;;2.70;;
32535;SDS011;18974;50.838;4.636;2023-03-11T01:04:32;14.52;;;2.40;;
32535;SDS011;18974;50.838;4.636;2023-03-11T01:06:58;11.32;;;2.45;;
32535;SDS011;18974;50.838;4.636;2023-03-11T01:09:24;11.35;;;2.33;;
32535;SDS011;18974;50.838;4.636;2023-03-11T01:11:49;10.25;;;2.03;;
32535;SDS011;18974;50.838;4.636;2023-03-11T01:14:16;9.40;;;2.50;;
32535;SDS011;18974;50.838;4.636;2023-03-11T01:16:42;8.25;;;2.00;;
32535;SDS011;18974;50.838;4.636;2023-03-11T01:19:07;10.30;;;2.15;;
32535;SDS011;18974;50.838;4.636;2023-03-11T01:21:33;21.10;;;2.55;;
32535;SDS011;18974;50.838;4.636;2023-03-11T01:23:59;9.88;;;2.25;;
32535;SDS011;18974;50.838;4.636;2023-03-11T01:26:24;7.70;;;2.00;;
32535;SDS011;18974;50.838;4.636;2023-03-11T01:28:50;8.80;;;1.58;;
32535;SDS011;18974;50.838;4.636;2023-03-11T01:31:16;15.38;;;2.45;;
32535;SDS011;18974;50.838;4.636;2023-03-11T01:33:41;12.50;;;2.05;;
32535;SDS011;18974;50.838;4.636;2023-03-11T01:36:07;7.25;;;2.20;;
32535;SDS011;18974;50.838;4.636;2023-03-11T01:38:33;7.00;;;2.08;;
32535;SDS011;18974;50.838;4.636;2023-03-11T01:40:58;9.65;;;2.30;;
32535;SDS011;18974;50.838;4.636;2023-03-11T01:46:15;9.15;;;2.10;;
32535;SDS011;18974;50.838;4.636;2023-03-11T01:48:48;8.23;;;1.83;;
32535;SDS011;18974;50.838;4.636;2023-03-11T01:51:32;7.18;;;2.08;;
32535;SDS011;18974;50.838;4.636;2023-03-11T01:54:08;7.67;;;2.00;;
32535;SDS011;18974;50.838;4.636;2023-03-11T01:56:37;6.40;;;1.65;;
32535;SDS011;18974;50.838;4.636;2023-03-11T01:59:04;5.22;;;2.10;;
32535;SDS011;18974;50.838;4.636;2023-03-11T02:01:32;8.15;;;2.42;;
32535;SDS011;18974;50.838;4.636;2023-03-11T02:03:58;6.45;;;2.10;;
32535;SDS011;18974;50.838;4.636;2023-03-11T02:06:26;10.32;;;2.25;;
32535;SDS011;18974;50.838;4.636;2023-03-11T02:08:53;7.60;;;2.22;;
32535;SDS011;18974;50.838;4.636;2023-03-11T02:11:20;9.65;;;3.15;;
32535;SDS011;18974;50.838;4.636;2023-03-11T02:13:51;13.20;;;2.70;;
32535;SDS011;18974;50.838;4.636;2023-03-11T02:16:21;9.90;;;2.60;;
32535;SDS011;18974;50.838;4.636;2023-03-11T02:18:47;8.65;;;2.75;;
32535;SDS011;18974;50.838;4.636;2023-03-11T02:21:23;13.43;;;2.65;;
32535;SDS011;18974;50.838;4.636;2023-03-11T02:24:14;6.30;;;2.65;;
32535;SDS011;18974;50.838;4.636;2023-03-11T02:27:04;13.90;;;2.72;;
32535;SDS011;18974;50.838;4.636;2023-03-11T02:29:36;11.70;;;2.72;;
32535;SDS011;18974;50.838;4.636;2023-03-11T02:32:03;10.18;;;2.85;;
32535;SDS011;18974;50.838;4.636;2023-03-11T02:34:32;12.73;;;2.88;;
32535;SDS011;18974;50.838;4.636;2023-03-11T02:36:59;11.30;;;3.08;;
32535;SDS011;18974;50.838;4.636;2023-03-11T02:39:31;6.32;;;2.70;;
32535;SDS011;18974;50.838;4.636;2023-03-11T02:41:58;11.60;;;3.45;;
32535;SDS011;18974;50.838;4.636;2023-03-11T02:44:26;11.85;;;2.80;;
32535;SDS011;18974;50.838;4.636;2023-03-11T02:46:52;12.18;;;2.70;;
32535;SDS011;18974;50.838;4.636;2023-03-11T02:49:18;11.32;;;2.65;;
32535;SDS011;18974;50.838;4.636;2023-03-11T02:51:45;8.48;;;2.78;;
32535;SDS011;18974;50.838;4.636;2023-03-11T02:54:11;9.02;;;3.03;;
32535;SDS011;18974;50.838;4.636;2023-03-11T02:56:37;8.20;;;2.63;;
32535;SDS011;18974;50.838;4.636;2023-03-11T02:59:02;12.70;;;3.40;;
32535;SDS011;18974;50.838;4.636;2023-03-11T03:01:28;13.25;;;3.33;;
32535;SDS011;18974;50.838;4.636;2023-03-11T03:03:54;14.35;;;2.50;;
32535;SDS011;18974;50.838;4.636;2023-03-11T03:06:19;13.38;;;2.70;;
32535;SDS011;18974;50.838;4.636;2023-03-11T03:08:45;11.23;;;2.92;;
32535;SDS011;18974;50.838;4.636;2023-03-11T03:11:11;6.63;;;2.45;;
32535;SDS011;18974;50.838;4.636;2023-03-11T03:13:37;6.88;;;2.60;;
32535;SDS011;18974;50.838;4.636;2023-03-11T03:16:02;14.05;;;2.92;;
32535;SDS011;18974;50.838;4.636;2023-03-11T03:18:28;8.15;;;3.08;;
32535;SDS011;18974;50.838;4.636;2023-03-11T03:20:54;7.43;;;2.35;;
32535;SDS011;18974;50.838;4.636;2023-03-11T03:23:20;12.73;;;2.72;;
32535;SDS011;18974;50.838;4.636;2023-03-11T03:25:45;11.27;;;2.67;;
32535;SDS011;18974;50.838;4.636;2023-03-11T03:28:11;6.97;;;2.53;;
32535;SDS011;18974;50.838;4.636;2023-03-11T03:30:38;9.07;;;2.70;;
32535;SDS011;18974;50.838;4.636;2023-03-11T03:33:04;9.20;;;2.80;;
32535;SDS011;18974;50.838;4.636;2023-03-11T03:35:31;12.43;;;3.67;;
32535;SDS011;18974;50.838;4.636;2023-03-11T03:37:57;6.72;;;2.60;;
32535;SDS011;18974;50.838;4.636;2023-03-11T03:40:23;11.98;;;2.65;;
32535;SDS011;18974;50.838;4.636;2023-03-11T03:42:49;16.40;;;3.30;;
32535;SDS011;18974;50.838;4.636;2023-03-11T03:45:15;13.18;;;3.10;;
32535;SDS011;18974;50.838;4.636;2023-03-11T03:47:41;13.75;;;3.78;;
32535;SDS011;18974;50.838;4.636;2023-03-11T03:50:07;13.25;;;3.38;;
32535;SDS011;18974;50.838;4.636;2023-03-11T03:52:34;12.55;;;3.33;;
32535;SDS011;18974;50.838;4.636;2023-03-11T03:55:00;9.80;;;3.35;;
32535;SDS011;18974;50.838;4.636;2023-03-11T03:57:30;16.17;;;3.42;;
32535;SDS011;18974;50.838;4.636;2023-03-11T03:59:55;14.98;;;4.03;;
32535;SDS011;18974;50.838;4.636;2023-03-11T04:02:21;12.32;;;3.22;;
32535;SDS011;18974;50.838;4.636;2023-03-11T04:04:47;10.30;;;3.13;;
32535;SDS011;18974;50.838;4.636;2023-03-11T04:07:12;14.55;;;3.03;;
32535;SDS011;18974;50.838;4.636;2023-03-11T04:09:39;10.57;;;2.75;;
32535;SDS011;18974;50.838;4.636;2023-03-11T04:12:06;9.82;;;3.60;;
32535;SDS011;18974;50.838;4.636;2023-03-11T04:14:35;12.40;;;3.45;;
32535;SDS011;18974;50.838;4.636;2023-03-11T04:17:01;14.38;;;3.58;;
32535;SDS011;18974;50.838;4.636;2023-03-11T04:19:26;15.43;;;3.45;;
32535;SDS011;18974;50.838;4.636;2023-03-11T04:21:52;19.00;;;3.55;;
32535;SDS011;18974;50.838;4.636;2023-03-11T04:24:17;10.75;;;3.38;;
32535;SDS011;18974;50.838;4.636;2023-03-11T04:26:43;19.92;;;3.45;;
32535;SDS011;18974;50.838;4.636;2023-03-11T04:29:09;14.60;;;3.92;;
32535;SDS011;18974;50.838;4.636;2023-03-11T04:31:35;11.32;;;3.72;;
32535;SDS011;18974;50.838;4.636;2023-03-11T04:34:00;10.02;;;3.85;;
32535;SDS011;18974;50.838;4.636;2023-03-11T04:36:26;11.55;;;3.17;;
32535;SDS011;18974;50.838;4.636;2023-03-11T04:38:52;11.07;;;3.45;;
32535;SDS011;18974;50.838;4.636;2023-03-11T04:41:17;14.52;;;3.70;;
32535;SDS011;18974;50.838;4.636;2023-03-11T04:43:43;9.30;;;3.20;;
32535;SDS011;18974;50.838;4.636;2023-03-11T04:46:08;10.13;;;2.78;;
32535;SDS011;18974;50.838;4.636;2023-03-11T04:48:34;18.15;;;3.10;;
32535;SDS011;18974;50.838;4.636;2023-03-11T04:51:00;22.15;;;3.90;;
32535;SDS011;18974;50.838;4.636;2023-03-11T04:53:26;9.77;;;3.60;;
32535;SDS011;18974;50.838;4.636;2023-03-11T04:55:51;17.35;;;4.20;;
32535;SDS011;18974;50.838;4.636;2023-03-11T04:58:18;13.70;;;4.20;;
32535;SDS011;18974;50.838;4.636;2023-03-11T05:00:43;12.15;;;4.45;;
32535;SDS011;18974;50.838;4.636;2023-03-11T05:03:09;12.98;;;3.67;;
32535;SDS011;18974;50.838;4.636;2023-03-11T05:05:35;14.68;;;3.92;;
32535;SDS011;18974;50.838;4.636;2023-03-11T05:08:01;16.42;;;4.38;;
32535;SDS011;18974;50.838;4.636;2023-03-11T05:10:27;14.80;;;4.30;;
32535;SDS011;18974;50.838;4.636;2023-03-11T05:12:53;8.55;;;4.18;;
32535;SDS011;18974;50.838;4.636;2023-03-11T05:15:18;17.48;;;4.57;;
32535;SDS011;18974;50.838;4.636;2023-03-11T05:17:44;21.40;;;5.13;;
32535;SDS011;18974;50.838;4.636;2023-03-11T05:20:10;18.65;;;4.65;;
32535;SDS011;18974;50.838;4.636;2023-03-11T05:22:36;18.17;;;5.40;;
32535;SDS011;18974;50.838;4.636;2023-03-11T05:25:03;13.82;;;5.00;;
32535;SDS011;18974;50.838;4.636;2023-03-11T05:27:30;11.77;;;4.50;;
32535;SDS011;18974;50.838;4.636;2023-03-11T05:29:55;22.35;;;4.70;;
32535;SDS011;18974;50.838;4.636;2023-03-11T05:32:21;14.30;;;3.80;;
32535;SDS011;18974;50.838;4.636;2023-03-11T05:34:47;16.08;;;4.03;;
32535;SDS011;18974;50.838;4.636;2023-03-11T05:37:12;17.88;;;5.00;;
32535;SDS011;18974;50.838;4.636;2023-03-11T05:39:38;12.90;;;4.05;;
32535;SDS011;18974;50.838;4.636;2023-03-11T05:42:04;14.05;;;4.35;;
32535;SDS011;18974;50.838;4.636;2023-03-11T05:44:31;12.57;;;3.92;;
32535;SDS011;18974;50.838;4.636;2023-03-11T05:46:57;14.38;;;4.38;;
32535;SDS011;18974;50.838;4.636;2023-03-11T05:49:23;13.13;;;4.30;;
32535;SDS011;18974;50.838;4.636;2023-03-11T05:51:49;16.33;;;3.88;;
32535;SDS011;18974;50.838;4.636;2023-03-11T05:54:15;9.02;;;4.50;;
32535;SDS011;18974;50.838;4.636;2023-03-11T05:56:42;16.38;;;4.10;;
32535;SDS011;18974;50.838;4.636;2023-03-11T05:59:09;15.25;;;4.88;;
32535;SDS011;18974;50.838;4.636;2023-03-11T06:01:36;21.77;;;5.20;;
32535;SDS011;18974;50.838;4.636;2023-03-11T06:04:02;16.23;;;5.55;;
32535;SDS011;18974;50.838;4.636;2023-03-11T06:06:27;16.92;;;5.57;;
32535;SDS011;18974;50.838;4.636;2023-03-11T06:08:53;16.38;;;4.85;;
32535;SDS011;18974;50.838;4.636;2023-03-11T06:11:19;13.98;;;4.72;;
32535;SDS011;18974;50.838;4.636;2023-03-11T06:13:47;13.60;;;5.10;;
32535;SDS011;18974;50.838;4.636;2023-03-11T06:16:17;15.13;;;5.40;;
32535;SDS011;18974;50.838;4.636;2023-03-11T06:18:42;17.60;;;5.55;;
32535;SDS011;18974;50.838;4.636;2023-03-11T06:21:08;15.02;;;5.10;;
32535;SDS011;18974;50.838;4.636;2023-03-11T06:23:39;17.10;;;5.60;;
32535;SDS011;18974;50.838;4.636;2023-03-11T06:26:05;15.80;;;4.97;;
32535;SDS011;18974;50.838;4.636;2023-03-11T06:28:31;12.10;;;4.50;;
32535;SDS011;18974;50.838;4.636;2023-03-11T06:31:05;14.15;;;4.35;;
32535;SDS011;18974;50.838;4.636;2023-03-11T06:33:34;15.57;;;4.85;;
32535;SDS011;18974;50.838;4.636;2023-03-11T06:36:00;21.73;;;5.10;;
32535;SDS011;18974;50.838;4.636;2023-03-11T06:38:27;13.95;;;4.95;;
32535;SDS011;18974;50.838;4.636;2023-03-11T06:40:53;19.80;;;5.43;;
32535;SDS011;18974;50.838;4.636;2023-03-11T06:43:22;18.63;;;5.35;;
32535;SDS011;18974;50.838;4.636;2023-03-11T06:45:48;10.23;;;5.63;;
32535;SDS011;18974;50.838;4.636;2023-03-11T06:48:13;20.88;;;7.20;;
32535;SDS011;18974;50.838;4.636;2023-03-11T06:50:39;20.35;;;6.22;;
32535;SDS011;18974;50.838;4.636;2023-03-11T06:53:04;18.73;;;6.55;;
32535;SDS011;18974;50.838;4.636;2023-03-11T06:55:31;15.00;;;5.88;;
32535;SDS011;18974;50.838;4.636;2023-03-11T06:57:57;19.92;;;6.95;;
32535;SDS011;18974;50.838;4.636;2023-03-11T07:00:23;19.92;;;6.45;;
32535;SDS011;18974;50.838;4.636;2023-03-11T07:02:49;14.60;;;6.07;;
32535;SDS011;18974;50.838;4.636;2023-03-11T07:05:15;21.35;;;6.32;;
32535;SDS011;18974;50.838;4.636;2023-03-11T07:07:41;22.13;;;6.80;;
32535;SDS011;18974;50.838;4.636;2023-03-11T07:10:07;18.92;;;6.10;;
32535;SDS011;18974;50.838;4.636;2023-03-11T07:12:33;21.95;;;6.57;;
32535;SDS011;18974;50.838;4.636;2023-03-11T07:14:59;18.42;;;5.95;;
32535;SDS011;18974;50.838;4.636;2023-03-11T07:17:25;19.67;;;7.28;;
32535;SDS011;18974;50.838;4.636;2023-03-11T07:19:51;12.90;;;5.85;;
32535;SDS011;18974;50.838;4.636;2023-03-11T07:22:17;18.25;;;6.45;;
32535;SDS011;18974;50.838;4.636;2023-03-11T07:24:47;13.38;;;6.13;;
32535;SDS011;18974;50.838;4.636;2023-03-11T07:27:13;17.90;;;6.30;;
32535;SDS011;18974;50.838;4.636;2023-03-11T07:29:39;16.67;;;6.25;;
32535;SDS011;18974;50.838;4.636;2023-03-11T07:32:05;17.58;;;6.70;;
32535;SDS011;18974;50.838;4.636;2023-03-11T07:34:32;16.38;;;6.30;;
32535;SDS011;18974;50.838;4.636;2023-03-11T07:36:57;18.83;;;6.20;;
32535;SDS011;18974;50.838;4.636;2023-03-11T07:39:23;13.85;;;5.43;;
32535;SDS011;18974;50.838;4.636;2023-03-11T07:41:49;20.20;;;5.53;;
32535;SDS011;18974;50.838;4.636;2023-03-11T07:44:15;12.30;;;5.20;;
32535;SDS011;18974;50.838;4.636;2023-03-11T07:46:41;12.48;;;6.65;;
32535;SDS011;18974;50.838;4.636;2023-03-11T07:49:07;13.10;;;5.80;;
32535;SDS011;18974;50.838;4.636;2023-03-11T07:51:33;15.43;;;6.78;;
32535;SDS011;18974;50.838;4.636;2023-03-11T07:54:01;13.68;;;6.07;;
32535;SDS011;18974;50.838;4.636;2023-03-11T07:56:28;19.67;;;6.72;;
32535;SDS011;18974;50.838;4.636;2023-03-11T07:58:56;17.00;;;5.82;;
32535;SDS011;18974;50.838;4.636;2023-03-11T08:01:23;15.48;;;5.38;;
32535;SDS011;18974;50.838;4.636;2023-03-11T08:03:51;17.13;;;5.90;;
32535;SDS011;18974;50.838;4.636;2023-03-11T08:06:25;15.13;;;5.85;;
32535;SDS011;18974;50.838;4.636;2023-03-11T08:08:53;27.10;;;6.15;;
32535;SDS011;18974;50.838;4.636;2023-03-11T08:11:19;13.95;;;5.35;;
32535;SDS011;18974;50.838;4.636;2023-03-11T08:13:45;16.10;;;5.45;;
32535;SDS011;18974;50.838;4.636;2023-03-11T08:16:14;20.35;;;5.82;;
32535;SDS011;18974;50.838;4.636;2023-03-11T08:18:41;18.60;;;5.65;;
32535;SDS011;18974;50.838;4.636;2023-03-11T08:21:08;14.32;;;5.18;;
32535;SDS011;18974;50.838;4.636;2023-03-11T08:23:37;13.93;;;5.10;;
32535;SDS011;18974;50.838;4.636;2023-03-11T08:26:03;16.83;;;5.85;;
32535;SDS011;18974;50.838;4.636;2023-03-11T08:28:33;13.15;;;5.05;;
32535;SDS011;18974;50.838;4.636;2023-03-11T08:30:59;19.83;;;5.75;;
32535;SDS011;18974;50.838;4.636;2023-03-11T08:33:25;15.57;;;6.00;;
32535;SDS011;18974;50.838;4.636;2023-03-11T08:35:51;23.55;;;6.03;;
32535;SDS011;18974;50.838;4.636;2023-03-11T08:38:17;17.80;;;5.68;;
32535;SDS011;18974;50.838;4.636;2023-03-11T08:40:43;16.08;;;5.53;;
32535;SDS011;18974;50.838;4.636;2023-03-11T08:43:11;12.82;;;5.35;;
32535;SDS011;18974;50.838;4.636;2023-03-11T08:45:38;11.98;;;4.97;;
32535;SDS011;18974;50.838;4.636;2023-03-11T08:48:04;14.70;;;5.20;;
32535;SDS011;18974;50.838;4.636;2023-03-11T08:50:30;13.60;;;5.57;;
32535;SDS011;18974;50.838;4.636;2023-03-11T08:52:56;10.07;;;4.82;;
32535;SDS011;18974;50.838;4.636;2023-03-11T08:55:24;11.25;;;4.75;;
32535;SDS011;18974;50.838;4.636;2023-03-11T08:57:52;19.55;;;5.28;;
32535;SDS011;18974;50.838;4.636;2023-03-11T09:00:18;18.58;;;5.47;;
32535;SDS011;18974;50.838;4.636;2023-03-11T09:02:44;15.93;;;4.78;;
32535;SDS011;18974;50.838;4.636;2023-03-11T09:05:10;17.45;;;4.75;;
32535;SDS011;18974;50.838;4.636;2023-03-11T09:07:35;12.90;;;4.55;;
32535;SDS011;18974;50.838;4.636;2023-03-11T09:10:01;17.05;;;3.63;;
32535;SDS011;18974;50.838;4.636;2023-03-11T09:12:27;18.40;;;3.40;;
32535;SDS011;18974;50.838;4.636;2023-03-11T09:14:53;8.27;;;3.17;;
32535;SDS011;18974;50.838;4.636;2023-03-11T09:17:20;10.93;;;3.63;;
32535;SDS011;18974;50.838;4.636;2023-03-11T09:19:46;11.13;;;3.08;;
32535;SDS011;18974;50.838;4.636;2023-03-11T09:22:11;13.70;;;2.78;;
32535;SDS011;18974;50.838;4.636;2023-03-11T09:24:37;11.50;;;3.10;;
32535;SDS011;18974;50.838;4.636;2023-03-11T09:27:03;12.50;;;3.30;;
32535;SDS011;18974;50.838;4.636;2023-03-11T09:29:28;10.35;;;2.80;;
32535;SDS011;18974;50.838;4.636;2023-03-11T09:31:54;11.00;;;2.67;;
32535;SDS011;18974;50.838;4.636;2023-03-11T09:34:20;10.95;;;3.60;;
32535;SDS011;18974;50.838;4.636;2023-03-11T09:36:46;8.25;;;2.17;;
32535;SDS011;18974;50.838;4.636;2023-03-11T09:39:12;5.78;;;1.90;;
32535;SDS011;18974;50.838;4.636;2023-03-11T09:41:57;8.50;;;1.42;;
32535;SDS011;18974;50.838;4.636;2023-03-11T09:44:44;13.52;;;1.35;;
32535;SDS011;18974;50.838;4.636;2023-03-11T09:49:59;9.57;;;1.10;;
32535;SDS011;18974;50.838;4.636;2023-03-11T09:52:32;5.18;;;1.17;;
32535;SDS011;18974;50.838;4.636;2023-03-11T09:55:11;5.10;;;0.90;;
32535;SDS011;18974;50.838;4.636;2023-03-11T10:01:23;9.13;;;0.85;;
32535;SDS011;18974;50.838;4.636;2023-03-11T10:03:52;10.15;;;1.13;;
32535;SDS011;18974;50.838;4.636;2023-03-11T10:06:21;5.15;;;1.48;;
32535;SDS011;18974;50.838;4.636;2023-03-11T10:20:08;10.48;;;1.58;;
32535;SDS011;18974;50.838;4.636;2023-03-11T10:26:10;11.00;;;1.65;;
32535;SDS011;18974;50.838;4.636;2023-03-11T10:33:44;9.18;;;1.02;;
32535;SDS011;18974;50.838;4.636;2023-03-11T10:36:24;6.25;;;1.42;;
32535;SDS011;18974;50.838;4.636;2023-03-11T10:38:57;6.95;;;2.00;;
32535;SDS011;18974;50.838;4.636;2023-03-11T10:44:05;4.40;;;1.17;;
32535;SDS011;18974;50.838;4.636;2023-03-11T10:46:35;5.50;;;1.10;;
32535;SDS011;18974;50.838;4.636;2023-03-11T10:49:00;14.93;;;1.45;;
32535;SDS011;18974;50.838;4.636;2023-03-11T10:51:35;12.07;;;1.67;;
32535;SDS011;18974;50.838;4.636;2023-03-11T10:54:02;16.77;;;2.23;;
32535;SDS011;18974;50.838;4.636;2023-03-11T10:59:02;16.92;;;1.48;;
32535;SDS011;18974;50.838;4.636;2023-03-11T11:01:30;6.53;;;1.70;;
32535;SDS011;18974;50.838;4.636;2023-03-11T11:03:56;5.13;;;1.20;;
32535;SDS011;18974;50.838;4.636;2023-03-11T11:06:32;3.78;;;1.30;;
32535;SDS011;18974;50.838;4.636;2023-03-11T11:09:03;9.40;;;1.50;;
32535;SDS011;18974;50.838;4.636;2023-03-11T11:11:35;4.38;;;1.05;;
32535;SDS011;18974;50.838;4.636;2023-03-11T11:14:03;7.00;;;1.20;;
32535;SDS011;18974;50.838;4.636;2023-03-11T11:16:29;8.23;;;1.38;;
32535;SDS011;18974;50.838;4.636;2023-03-11T11:19:07;6.43;;;1.23;;
32535;SDS011;18974;50.838;4.636;2023-03-11T11:21:36;9.77;;;1.92;;
32535;SDS011;18974;50.838;4.636;2023-03-11T11:30:14;13.27;;;1.55;;
32535;SDS011;18974;50.838;4.636;2023-03-11T11:32:34;5.93;;;1.50;;
32535;SDS011;18974;50.838;4.636;2023-03-11T11:35:01;8.55;;;1.58;;
32535;SDS011;18974;50.838;4.636;2023-03-11T11:37:34;10.10;;;1.20;;
32535;SDS011;18974;50.838;4.636;2023-03-11T11:42:54;6.10;;;1.27;;
32535;SDS011;18974;50.838;4.636;2023-03-11T11:45:27;4.40;;;1.40;;
32535;SDS011;18974;50.838;4.636;2023-03-11T11:48:03;3.10;;;1.05;;
32535;SDS011;18974;50.838;4.636;2023-03-11T11:50:51;6.63;;;1.17;;
32535;SDS011;18974;50.838;4.636;2023-03-11T11:53:27;5.57;;;1.13;;
32535;SDS011;18974;50.838;4.636;2023-03-11T11:56:02;8.05;;;2.28;;
32535;SDS011;18974;50.838;4.636;2023-03-11T11:58:28;6.68;;;1.23;;
32535;SDS011;18974;50.838;4.636;2023-03-11T12:01:14;10.88;;;1.10;;
32535;SDS011;18974;50.838;4.636;2023-03-11T12:06:39;6.88;;;0.93;;
32535;SDS011;18974;50.838;4.636;2023-03-11T12:12:27;5.85;;;1.00;;
32535;SDS011;18974;50.838;4.636;2023-03-11T12:15:19;3.33;;;1.10;;
32535;SDS011;18974;50.838;4.636;2023-03-11T12:17:53;4.57;;;0.85;;
32535;SDS011;18974;50.838;4.636;2023-03-11T12:20:34;6.47;;;1.13;;
32535;SDS011;18974;50.838;4.636;2023-03-11T12:23:19;8.93;;;1.10;;
32535;SDS011;18974;50.838;4.636;2023-03-11T12:26:00;3.47;;;0.90;;
32535;SDS011;18974;50.838;4.636;2023-03-11T12:28:43;8.27;;;1.30;;
32535;SDS011;18974;50.838;4.636;2023-03-11T12:31:17;6.68;;;1.50;;
32535;SDS011;18974;50.838;4.636;2023-03-11T12:36:19;10.40;;;1.60;;
32535;SDS011;18974;50.838;4.636;2023-03-11T12:38:46;5.15;;;0.98;;
32535;SDS011;18974;50.838;4.636;2023-03-11T12:46:10;6.57;;;1.00;;
32535;SDS011;18974;50.838;4.636;2023-03-11T12:53:51;3.33;;;0.88;;
32535;SDS011;18974;50.838;4.636;2023-03-11T13:02:28;6.75;;;1.38;;
32535;SDS011;18974;50.838;4.636;2023-03-11T13:08:07;16.42;;;1.90;;
32535;SDS011;18974;50.838;4.636;2023-03-11T13:10:40;7.15;;;1.20;;
32535;SDS011;18974;50.838;4.636;2023-03-11T13:18:37;8.55;;;1.38;;
32535;SDS011;18974;50.838;4.636;2023-03-11T13:23:52;5.10;;;1.27;;
32535;SDS011;18974;50.838;4.636;2023-03-11T13:34:51;5.57;;;1.17;;
32535;SDS011;18974;50.838;4.636;2023-03-11T13:40:41;10.15;;;1.20;;
32535;SDS011;18974;50.838;4.636;2023-03-11T13:43:10;5.35;;;1.48;;
32535;SDS011;18974;50.838;4.636;2023-03-11T13:45:40;9.10;;;1.13;;
32535;SDS011;18974;50.838;4.636;2023-03-11T13:48:30;10.90;;;1.67;;
32535;SDS011;18974;50.838;4.636;2023-03-11T13:51:02;11.55;;;1.30;;
32535;SDS011;18974;50.838;4.636;2023-03-11T13:53:33;8.27;;;1.60;;
32535;SDS011;18974;50.838;4.636;2023-03-11T13:56:17;7.05;;;1.63;;
32535;SDS011;18974;50.838;4.636;2023-03-11T13:58:52;10.25;;;1.50;;
32535;SDS011;18974;50.838;4.636;2023-03-11T14:01:18;6.35;;;1.38;;
32535;SDS011;18974;50.838;4.636;2023-03-11T14:03:45;9.50;;;1.80;;
32535;SDS011;18974;50.838;4.636;2023-03-11T14:06:18;7.68;;;1.38;;
32535;SDS011;18974;50.838;4.636;2023-03-11T14:08:54;6.45;;;1.30;;
32535;SDS011;18974;50.838;4.636;2023-03-11T14:11:24;5.07;;;1.30;;
32535;SDS011;18974;50.838;4.636;2023-03-11T14:13:51;4.25;;;1.27;;
32535;SDS011;18974;50.838;4.636;2023-03-11T14:16:36;5.75;;;1.08;;
32535;SDS011;18974;50.838;4.636;2023-03-11T14:21:41;10.95;;;1.83;;
32535;SDS011;18974;50.838;4.636;2023-03-11T14:24:13;6.68;;;1.58;;
32535;SDS011;18974;50.838;4.636;2023-03-11T14:26:55;9.02;;;1.67;;
32535;SDS011;18974;50.838;4.636;2023-03-11T14:29:27;3.75;;;1.00;;
32535;SDS011;18974;50.838;4.636;2023-03-11T14:34:54;7.07;;;1.50;;
32535;SDS011;18974;50.838;4.636;2023-03-11T14:37:36;7.85;;;1.50;;
32535;SDS011;18974;50.838;4.636;2023-03-11T14:43:06;7.10;;;1.42;;
32535;SDS011;18974;50.838;4.636;2023-03-11T14:45:33;6.03;;;1.40;;
32535;SDS011;18974;50.838;4.636;2023-03-11T14:48:05;5.40;;;1.20;;
32535;SDS011;18974;50.838;4.636;2023-03-11T14:50:36;11.33;;;1.63;;
32535;SDS011;18974;50.838;4.636;2023-03-11T14:55:36;6.07;;;1.20;;
32535;SDS011;18974;50.838;4.636;2023-03-11T15:01:22;6.05;;;1.00;;
32535;SDS011;18974;50.838;4.636;2023-03-11T15:06:25;5.50;;;1.42;;
32535;SDS011;18974;50.838;4.636;2023-03-11T15:09:09;5.35;;;1.20;;
32535;SDS011;18974;50.838;4.636;2023-03-11T15:11:45;7.88;;;1.77;;
32535;SDS011;18974;50.838;4.636;2023-03-11T15:14:29;5.80;;;1.20;;
32535;SDS011;18974;50.838;4.636;2023-03-11T15:19:45;8.77;;;1.55;;
32535;SDS011;18974;50.838;4.636;2023-03-11T15:22:25;6.18;;;1.10;;
32535;SDS011;18974;50.838;4.636;2023-03-11T15:24:53;4.47;;;1.40;;
32535;SDS011;18974;50.838;4.636;2023-03-11T15:27:26;7.50;;;1.10;;
32535;SDS011;18974;50.838;4.636;2023-03-11T15:29:55;6.78;;;1.52;;
32535;SDS011;18974;50.838;4.636;2023-03-11T15:37:31;7.45;;;1.27;;
32535;SDS011;18974;50.838;4.636;2023-03-11T15:40:07;8.43;;;1.20;;
32535;SDS011;18974;50.838;4.636;2023-03-11T15:42:43;6.15;;;1.27;;
32535;SDS011;18974;50.838;4.636;2023-03-11T15:45:10;6.50;;;1.42;;
32535;SDS011;18974;50.838;4.636;2023-03-11T15:47:43;11.10;;;1.67;;
32535;SDS011;18974;50.838;4.636;2023-03-11T15:50:20;6.85;;;1.60;;
32535;SDS011;18974;50.838;4.636;2023-03-11T15:52:48;5.35;;;0.98;;
32535;SDS011;18974;50.838;4.636;2023-03-11T15:55:18;6.72;;;1.42;;
32535;SDS011;18974;50.838;4.636;2023-03-11T15:57:44;9.43;;;1.73;;
32535;SDS011;18974;50.838;4.636;2023-03-11T16:00:23;6.47;;;1.50;;
32535;SDS011;18974;50.838;4.636;2023-03-11T16:02:49;5.63;;;1.35;;
32535;SDS011;18974;50.838;4.636;2023-03-11T16:05:18;1.63;;;1.10;;
32535;SDS011;18974;50.838;4.636;2023-03-11T16:07:46;5.28;;;1.13;;
32535;SDS011;18974;50.838;4.636;2023-03-11T16:10:12;5.82;;;1.30;;
32535;SDS011;18974;50.838;4.636;2023-03-11T16:12:40;12.88;;;2.75;;
32535;SDS011;18974;50.838;4.636;2023-03-11T16:15:28;12.30;;;1.67;;
32535;SDS011;18974;50.838;4.636;2023-03-11T16:17:58;3.67;;;1.50;;
32535;SDS011;18974;50.838;4.636;2023-03-11T16:20:26;6.90;;;1.30;;
32535;SDS011;18974;50.838;4.636;2023-03-11T16:22:58;12.65;;;1.90;;
32535;SDS011;18974;50.838;4.636;2023-03-11T16:25:31;3.25;;;0.90;;
32535;SDS011;18974;50.838;4.636;2023-03-11T16:28:00;6.65;;;1.05;;
32535;SDS011;18974;50.838;4.636;2023-03-11T16:30:27;6.05;;;1.25;;
32535;SDS011;18974;50.838;4.636;2023-03-11T16:32:54;10.48;;;1.50;;
32535;SDS011;18974;50.838;4.636;2023-03-11T16:35:20;7.15;;;1.15;;
32535;SDS011;18974;50.838;4.636;2023-03-11T16:37:46;8.20;;;1.50;;
32535;SDS011;18974;50.838;4.636;2023-03-11T16:40:14;7.90;;;1.52;;
32535;SDS011;18974;50.838;4.636;2023-03-11T16:42:45;8.45;;;1.20;;
32535;SDS011;18974;50.838;4.636;2023-03-11T16:45:12;4.25;;;1.40;;